Classement Mini-crêtes 2006
Classement Scratch Nom Prénom Club Temps Moyenne au Kilométre km/h Ville Année de Naissance Categorie Arrivée par catégorie Dossard
1 MOUGEL Adrien Sc La Bressaude 00:50:55 04'14''58  14.14 LA BRESSE 1988 JUM 0001 1283
2 REBISCHUNG Claude Eha Thann 00:51:04 04'15''33  14.10 BRUNSTATT 1964 V1M 0001 1321
3 CURIEN David Cohm 00:52:02 04'20''16  13.84 CORNIMONT 1972 SEM 0001 1002
4 PERRIN Gilles Pca Esr Colmar Ac 00:52:15 04'21''25  13.78 LABAROCHE 1969 SEM 0002 1001
5 ZIEGLER Fabien Eha / Ad 00:53:00 04'25''00  13.58 MASEVAUX 1985 ESM 0001 1425
6 MICLO Joel Acik 00:53:04 04'25''33  13.57 PFASTATT LE CHATEAU 1977 SEM 0003 1272
7 GIORDANO Giovanni Isaura Valle Dell'Irno 00:53:54 04'29''50  13.36 AMMERSCHWIHR 1963 V1M 0002 1168
8 PIERRE Aurélien Pca Esr Colmar Ac 00:53:58 04'29''83  13.34 ORBEY 1986 ESM 0002 1308
9 KEMPF Mickael Skieur Du Tanet 00:55:41 04'38''41  12.93 HOHROD 1989 CAM 0001 1207
10 DUBIEF Serge Ski Club Ranspach 00:55:46 04'38''83  12.91 MOOSCH 1973 SEM 0004 1127
11 BOURQUIN Alexandre Gérardmer Ski Nordique 00:56:03 04'40''25  12.85 GERARDMER 1979 SEM 0005 1467
12 CHEMIN Luc Lac Blanc Ski Nordique 00:56:09 04'40''75  12.82 LABAROCHE 1990 CAM 0002 1092
13 GEBELE Eric Ski Club Ranspach 00:56:21 04'41''75  12.78 MULHOUSE 1975 SEM 0006 1005
14 TOUSSAINT Arnaud Orbey Running Club 00:56:29 04'42''41  12.75 ORBEY 1987 JUM 0002 1392
15 WEBER Philippe Pca Csl Neuf-Brisach 00:56:34 04'42''83  12.73 HOUSSEN 1971 SEM 0007 1411
16 AUBERT Thierry Ana Fcjab 00:56:42 04'43''50  12.70 HERRLISHEIM 1971 SEM 0008 1034
17 REMY Morgan Epinal 00:56:46 04'43''83  12.68 EPINAL 1989 CAM 0003 1323
18 MARCHAND Benoit Pca Esr Colmar Ac 00:56:48 04'44''00  12.68 ORBEY 1981 SEM 0009 1260
19 KIRSTETTER Emmanuel Ac Centre Alsace 00:57:25 04'47''08  12.54 HEILIGENSTEIN 1980 SEM 0010 1211
20 WAYERE Arnaud Us Ham Triathlon 00:57:32 04'47''66  12.51 EPPEVILLE 1971 SEM 0011 1408
21 FUSSNER Jérôme Skieurs du Tanet 00:57:43 04'48''58  12.47 SOULTZEREN 1989 CAM 0004 1440
22 WODEY Steeve Skieurs du Tanet 00:57:49 04'49''08  12.45 METZERAL 1986 ESM 0003 1443
23 FERRAZ Joaquim Espace Marathon 00:58:13 04'51''08  12.37 MUHLBACH 1965 V1M 0003 1148
24 FUSSNER Etienne Skieurs du Tanet 00:58:14 04'51''16  12.36 SOULTZEREN 1960 V1M 0004 1441
25 BENOIT Pierre Cocattes Team 00:58:36 04'53''00  12.29 LA VANCELLE 1972 SEM 0012 1449
26 LEPLEY Valery Didenheim 00:58:51 04'54''25  12.23 DIDENHEIM 1968 SEM 0013 1245
27 TOULET Fabien Walbach 00:59:41 04'58''41  12.06 WALBACH 1971 SEM 0014 1390
28 POIROT Didier La Bresse 00:59:55 04'59''58  12.02 LA BRESSE 1965 V1M 0005 1314
29 THOMAS Patrice Anjoutey 01:00:22 05'01''83  11.93 ANJOUTEY 1969 SEM 0015 1387
30 VILLAUME William Asc Urimenil 01:00:31 05'02''58  11.90 URINERIL 1989 CAM 0005 1403
31 BEHRENS Jacky Team Espace Marathon 01:00:36 05'03''00  11.88 BISCHOFFSHEIM 1955 V2M 0001 1045
32 GAVOILLE Grégory Pugey 01:00:47 05'03''91  11.85 PUGEY 1974 SEM 0016 1162
33 FAURE Cedric Illkirch 01:00:56 05'04''66  11.82 ILLKIRCH 1976 SEM 0017 1144
34 COTELLE Claude Cscv Hirson 01:01:01 05'05''08  11.80 MARTIGNY 1963 V1M 0006 1103
35 NOURDIN Gorian Clarens 01:01:02 05'05''16  11.80 CLARENS 1976 SEM 0018 1289
36 SCHWARZWAELDER Christian Metzeral 01:01:03 05'05''25  11.79 METZERAL 1966 V1M 0007 1363
37 HENRIET Thierry C.O.S.Villers Athlé 01:01:10 05'05''83  11.77 MARON 1968 SEM 0019 1197
38 VAXELAIRE Sylvain La Bresse 01:01:29 05'07''41  11.71 LA BRESSE 1973 SEM 0020 1400
39 ADOLPHE Sébastien Pertuy Construction 01:01:37 05'08''08  11.69 MAXEVILLE 1982 SEM 0021 1444
40 GICQUEL Stephane Liebherr Colmar 01:01:52 05'09''33  11.64 AMMERSCHWIHR 1967 SEM 0022 1006
41 FREBILLOT Jacques Asc Urimenil 01:02:05 05'10''41  11.60 URIMENIL 1955 V2M 0002 1155
42 MINOUX Cédric Orbey 01:02:16 05'11''33  11.56 ORBEY 1972 SEM 0023 1273
43 ADAM Christian Grandvillars 01:02:20 05'11''66  11.55 GRANDVILLARS 1962 V1M 0008 1020
44 PIERRE Claude Orbey Running Club 01:02:22 05'11''83  11.54 ORBEY 1958 V1M 0009 1309
45 LUTZ Patrick Osram 01:02:35 05'12''91  11.50 OSTWALD 1963 V1M 0010 1253
46 BENOIT Antony Maisonsgoutte 01:02:38 05'13''16  11.50 MAISONSGOUTTE 1976 SEM 0024 1047
47 BEUGNOT Rémi Asrhv 01:03:00 05'15''00  11.43 SAINT ETIENNE LES RE 1985 ESM 0004 1057
48 COURRIER Jean Claude Club Ind Sp.D'Etival 01:03:07 05'15''58  11.41 MOYENMOUTIER 1946 V3M 0001 1012
49 UNTERSEH Marc Altkirch Athlé Sundgau 01:03:12 05'16''00  11.39 HIRTZBACH 1967 SEM 0025 1396
50 MARCHAL Etienne Rupt Sur Moselle 01:03:20 05'16''66  11.37 RUPT SUR MOSELLE 1966 V1M 0011 1259
51 DIDIER Stéphane Sp Orbey 01:03:22 05'16''83  11.36 ORBEY 1980 SEM 0026 1461
52 CUNY Bernard Sc Xonrupt 01:03:28 05'17''33  11.34 LA BRESSE 1947 V2M 0003 1108
53 SCHMIDT Denis Colmar 01:03:30 05'17''50  11.34 COLMAR 1974 SEM 0027 1451
54 CAUBERE Thierry Strasbourg 01:03:40 05'18''33  11.31 STRASBOURG 1966 V1M 0012 1097
55 GIBIER André E.S.Thaon 01:03:45 05'18''75  11.29 LES FORGES 1968 SEM 0028 1165
56 FASSEL Alexis Esrstein Aquatic Club 01:03:57 05'19''75  11.26 ERSTEIN 1961 V1M 0013 1142
57 ARON CLAUSS Alain Ana Ras 01:04:00 05'20''00  11.25 HATTMATT 1964 V1M 0014 1032
58 BLANCHARD Claude Intersport St Dié 01:04:05 05'20''41  11.24 STE MARGUERITE 1956 V2M 0004 1062
59 BECOULET Michel Orbey Running Club 01:04:05 05'20''41  11.24 ORBEY 1957 V1M 0015 1044
60 HALBWAX Francis Holtzheim 01:04:13 05'21''08  11.21 HOLTZHEIM 1949 V2M 0005 1189
61 SCHNEIDER Patrick Buhl 01:04:16 05'21''33  11.20 BUHL 1970 SEM 0029 1361
62 FREBILLOT Benoit Urimenil 01:04:18 05'21''50  11.20 URIMENIL 1988 JUM 0003 1154
63 STORCK Denis Sp Lochwiller 01:04:23 05'21''91  11.18 LOCHWILLER 1956 V2M 0006 1378
64 FELLMANN Marc Messier Bugatti 01:04:25 05'22''08  11.18 MUTTERSHOLTZ 1956 V2M 0007 1456
65 BOCH Thomas Ulp Strasbourg 01:04:28 05'22''33  11.17 STRASBOURG 1978 SEM 0030 1068
66 MOSSER Jacques As La Claquette 01:04:34 05'22''83  11.15 BOERSCH 1968 SEM 0031 1282
67 STORCK Christian Sp Lochwiller 01:04:38 05'23''16  11.14 LOCHWILLER 1982 SEM 0032 1377
68 VALDENAIRE Jean Pascal Raid Team Chantraine 01:04:40 05'23''33  11.13 CHANTRAINE 1962 V1M 0016 1397
69 HAENSLER Christian Eha Usta 01:04:40 05'23''33  11.13 THANN 1954 V2M 0008 1188
70 GRAPPEIN Rémi Elan Chevilly Larue 01:04:47 05'23''91  11.11 CHEVILLY LARUE 1966 V1M 0017 1176
71 CHATTON Francis Cis Etival 01:04:52 05'24''33  11.10 ST DIE DES VOSGES 1961 V1M 0018 1089
72 WISSON Pierre Colmar 01:04:55 05'24''58  11.09 COLMAR 1976 SEM 0033 1417
73 LETT Jean Marie Mc Ensisheim 01:05:07 05'25''58  11.06 BALGAU 1964 V1M 0019 1247
74 ELBLING David As Liebherr France 01:05:10 05'25''83  11.05 OSTHEIM 1969 SEM 0034 1458
75 HANS Nicolas N7 Toulouse 01:05:19 05'26''58  11.02 TOULOUSE 1985 ESM 0005 1191
76 IMBS Gaston Avenheim 01:05:39 05'28''25  10.97 AVENHEIM 1956 V2M 0009 0991
77 MANTEZ Stephane Us Thann Athletisme 01:05:46 05'28''83  10.95 ODEREN 1961 V1M 0020 1258
78 BLANCHARD Xavier Asc Bnp Paribas 01:05:55 05'29''58  10.92 BELFORT 1958 V1M 0021 1063
79 GROSS René Murbach 01:05:59 05'29''91  10.91 MURBACH 1951 V2M 0010 1183
80 MOLLI Nicolas Besancon 01:06:02 05'30''16  10.90 BESANCON 1974 SEM 0035 1277
81 GRAPPEIN Etienne Markiv Triathlon Team 01:06:05 05'30''41  10.90 LOGELBACH 1972 SEM 0036 1174
82 MAILLARD Eric Lingolsheim 01:06:07 05'30''58  10.89 LINGOLSHEIM 1969 SEM 0037 1255
83 MEYER Raoul Truchtersheim 01:06:26 05'32''16  10.84 TRUCHTERSHEIM 1959 V1M 0022 1270
84 HUMMER Sebastien Blamont 01:06:28 05'32''33  10.83 BLAMONT 1978 SEM 0038 1204
85 HENRY Ghislain Le Bonhomme 01:06:30 05'32''50  10.83 LE BONHOMME 1967 SEM 0039 1198
86 SAVOY Patrice Asm Chantraine 01:06:35 05'32''91  10.81 CHANTRAINE 1952 V2M 0011 1348
87 CHAUDEY Gerard Rupt Sur Moselle 01:06:46 05'33''83  10.78 RUPT SUR MOSELLE 1965 V1M 0023 1090
88 DUVOID Jean Pierre Cis Etival 01:06:49 05'34''08  10.78 ST DIE DES VOSGES 1957 V1M 0024 1132
89 THALMANN Georges La Saline 01:06:51 05'34''25  10.77 SOULTZ SOUS FORETS 1966 V1M 0025 1381
90 PITROU Vincent Colmar 01:07:08 05'35''66  10.72 COLMAR 1974 SEM 0040 1312
91 DRANESAS Olivier Senones 01:07:10 05'35''83  10.72 SENONES 1963 V1M 0026 1126
92 DIDIER Eric Ca Champigneulles 01:07:16 05'36''33  10.70 CHAMPIGNEULLES 1984 ESM 0006 0992
93 KOEHL Daniel La Saline 01:07:16 05'36''33  10.70 LOBSANN 1955 V2M 0012 1218
94 COURTOIS Roland Asm Chantraine 01:07:29 05'37''41  10.67 GOLBEY 1951 V2M 0013 1106
95 SONZOENI Olivier Sorcy St Martin 01:07:38 05'38''16  10.65 SORCY ST MARTIN 1966 V1M 0027 1457
96 KEHR Stéphane Colmar 01:07:44 05'38''66  10.63 COLMAR 1983 SEM 0041 1206
97 PHILIPPEAU Guy Coop Alsace 01:07:50 05'39''16  10.61 STRASBOURG 1968 SEM 0042 1307
98 GRENOT Paola Asso.Bruyeres Athlé 01:07:52 05'39''33  10.61 GUGNECOURT 1963 V1F 0001 1179
99 VAXELAIRE-PIERREL Annick 1er RT 01:08:03 05'40''25  10.58 LA BRESSE 1974 SEF 0001 1009
100 CARIANI Cédric Chatenois 01:08:08 05'40''66  10.57 CHATENOIS 1962 V1M 0028 1084
101 STEIB Christophe Wac Wintzenheim 01:08:28 05'42''33  10.52 AMMERSCHWIHR 1964 V1M 0029 1439
102 BARTH Thierry Noidans Les Vesoul 01:08:35 05'42''91  10.50 NOIDANS LES VESOUL 1970 SEM 0043 1040
103 KUEHN Gilles Kabca 01:08:39 05'43''25  10.49 AMMERSCHWIHR 1987 JUM 0004 1222
104 REMY Vincent Riedisheim 01:08:46 05'43''83  10.47 RIEDISHEIM 1979 SEM 0044 1324
105 RIBAU Simon Gerardmer Triathlon 01:08:50 05'44''16  10.46 GERARDMER 1975 SEM 0045 1326
106 GRIL Gilbert Colmar Marathon Club 01:08:52 05'44''33  10.45 LAPOUTROIE 1950 V2M 0014 1181
107 FOLLEREAU Vincent As Electro Gaz Blenod 01:08:55 05'44''58  10.45 NANCY 1976 SEM 0046 1151
108 GUDDENDORF Alban Aseg Nancy Blenod 01:08:56 05'44''66  10.44 FROUARD 1959 V1M 0030 1185
109 ZENTNER Francis Pca Csl Neuf-Brisach 01:08:58 05'44''83  10.44 FLAXLANDEN 1952 V2M 0015 1424
110 CLAUDEL Bernard Cornimont 01:09:03 05'45''25  10.43 CORNIMONT 1957 V1M 0031 1098
111 SCHLIENGER Jacky Colmar Marathon Club 01:09:05 05'45''41  10.42 COLMAR 1964 V1M 0032 1355
112 LASSALLE Francis Sao Colmar 01:09:11 05'45''91  10.41 COLMAR 1979 SEM 0047 1230
113 CALOMEGO Denis As Fréland 01:09:13 05'46''08  10.40 FRELAND 1965 V1M 0033 1083
114 CUNY Anne Laure La Bressaude Ski Club 01:09:16 05'46''33  10.39 LA BRESSE 1987 JUF 0001 1107
115 TRIBY Fabien Strasbourg 01:09:19 05'46''58  10.39 SCHILTIGHEIM 1976 SEM 0048 1394
116 LUTTMANN Michel Forts Trotters 01:09:22 05'46''83  10.38 NIEDERHAUSBERGEN 1971 SEM 0049 1448
117 LECOINTE Michel Eckartswiller 01:09:30 05'47''50  10.36 ECKARTSWILLER 1959 V1M 0034 1235
118 DEBS Guy Seebach 01:09:31 05'47''58  10.36 SEEBACH 1956 V2M 0016 1116
119 ZIESSEL Michel Sondernach 01:09:34 05'47''83  10.35 SONDERNACH 1955 V2M 0017 1426
120 ANGST Robert Albé 01:09:36 05'48''00  10.34 ALBÉ 1958 V1M 0035 1030
121 BOITTE Jean Yves Etival Clairefontaine 01:09:47 05'48''91  10.32 ETIVAL CLAIREFONTAIN 1966 V1M 0036 1069
122 FAGES Philippe Vtc 01:09:51 05'49''25  10.31 COLMAR 1963 V1M 0037 1141
123 SPAETY Christophe Colmar Marathon Club 01:09:53 05'49''41  10.30 COLMAR 1964 V1M 0038 1373
124 BREZILLON José Foulées 4P Rosheim 01:09:57 05'49''75  10.29 ROSHEIM 1969 SEM 0050 1077
125 CADIOU Jean Loup Ana Ras 01:10:00 05'50''00  10.29 SAINT-JEAN SAVERNE 1990 CAM 0006 1082
126 EBER Rodrigue Arvinmeritor 01:10:07 05'50''58  10.27 BREITENBACH 1978 SEM 0051 1133
127 BERINGER Franck Munseter 01:10:16 05'51''33  10.25 MUNSTER 1975 SEM 0052 1051
128 PARMENTIER Etienne Asc Urimenil 01:10:18 05'51''50  10.24 URIMENIL 1955 V2M 0018 1294
129 GILLIG Ronan Handball Club Wintzenheim 01:10:21 05'51''75  10.23 WINTZENHEIM 1989 CAM 0007 1167
130 NADJI Mohamed Logelbach 01:10:24 05'52''00  10.23 LOGELBACH 1940 V3M 0002 1286
131 GUERBERT Pierre Cld Ottrott 01:10:28 05'52''33  10.22 OTTROTT 1951 V2M 0019 1186
132 FRIAISSE Fabrice Dojo Mirecurtien 01:10:29 05'52''41  10.22 MIRECOURT 1972 SEM 0053 1157
133 DUSSOURD Michel General Motors 01:10:30 05'52''50  10.21 WITTISHEIM 1974 SEM 0054 1131
134 ZIRNHELT Marc Les Forts Trotters 01:10:33 05'52''75  10.21 NIEDERHAUBERGEN 1960 V1M 0039 1428
135 ALBRECHT Claude Sand 01:10:35 05'52''91  10.20 SAND 1962 V1M 0040 1022
136 ODILLE Léon Ca De Champigneulles 01:10:39 05'53''25  10.19 CHAMPIGNEULLES 1953 V2M 0020 1290
137 COURGEY Sabrina Asptt Strasbourg 01:10:40 05'53''33  10.19 GEISPOLSHEIM 1980 SEF 0002 1105
138 SOEDER Eric Conseil Général 67 01:10:41 05'53''41  10.19 GEISPOLSHEIM 1972 SEM 0055 1370
139 MAGONI Bruno Clarens 01:10:49 05'54''08  10.17 CLARENS 1971 SEM 0056 1459
140 LAUNAY Sylvie Thaï Crayon 01:10:54 05'54''50  10.16 METZERESCHE 1969 SEF 0003 1232
141 BISCH Pascal Guebwiller 01:10:57 05'54''75  10.15 BERGHOLTZ ZELL 1969 SEM 0057 1061
142 KINTZ Matthieu Fegersheim 01:11:09 05'55''75  10.12 FEGERSHEIM 1987 JUM 0005 1210
143 IRIG Frédéric Labaroche 01:11:17 05'56''41  10.10 LABAROCHE 1968 SEM 0058 1464
144 IDOUX Francis Fréland 01:11:18 05'56''50  10.10 FRELAND 1961 V1M 0041 1436
145 DEBS Gregory Seebach 01:11:26 05'57''16  10.08 STRASBOURG 1982 SEM 0059 1115
146 NICOLAS Marcel Asm Chantraine 01:11:30 05'57''50  10.07 GOLBEY 1940 V3M 0003 1287
147 ROESS Jean Hohrod 01:11:42 05'58''50  10.04 HOHROD 1947 V2M 0021 1338
148 MISIURNY Laurent As Munster Athlé 01:11:44 05'58''66  10.04 SONDERBACH 1966 V1M 0042 1433
149 BIDALOT Céline Pca Cca Rouffach 01:11:47 05'58''91  10.03 COLMAR 1972 SEF 0004 1058
150 THEILER Bernard Eha / Ad 01:12:22 06'01''83   9.95 HUSSEREN WESSERLING 1944 V3M 0004 1382
151 LOEWERT Bernard E.p.fessenheim 01:12:32 06'02''66   9.93 BANTZENHEIM 1954 V2M 0022 1250
152 CONREAUX Jean-pierre Munster 01:12:34 06'02''83   9.92 MUNSTER 1962 V1M 0043 1102
153 MOENCH Dominique Lutzelhouse 01:12:36 06'03''00   9.92 LUTZELHOUSE 1966 V1M 0044 1274
154 GEHIN Bernard Cornimont 01:12:37 06'03''08   9.92 CORNIMONT 1953 V2M 0023 1163
155 GASSER Jean Jacques Alcan Sarrebourg 01:12:46 06'03''83   9.89 LAFRIMBOLLE 1957 V1M 0045 1160
156 WEISS Jean Bernard Colmar 01:12:49 06'04''08   9.89 COLMAR 1951 V2M 0024 1412
157 RAPEAU Christophe Chaligny 01:12:55 06'04''58   9.87 CHALIGNY 1973 SEM 0060 0996
158 HANS Jean Christophe Clermont Uc 01:13:02 06'05''16   9.86 LA ROCHE BLANCHE 1960 V1M 0046 1190
159 PENCREACH Erwan Schitigheim 01:13:08 06'05''66   9.85 SCHITIGHEIM 1973 SEM 0061 1298
160 KLEIN Joseph Kuttolsheim 01:13:27 06'07''25   9.80 KUTTOLSHEIM 1955 V2M 0025 1212
161 REMY Jean-denis Epinal 01:13:27 06'07''25   9.80 EPINAL 1964 V1M 0047 1322
162 MEY Patrick Cime 01:13:38 06'08''16   9.78 ILLKIRCH 1963 V1M 0048 1269
163 BROST Eric Psa  Peugeot 01:13:39 06'08''25   9.78 KINGERSHEIM 1966 V1M 0049 1079
164 FORTIER Antoine Handball Club Wintzenheim 01:13:43 06'08''58   9.77 COLMAR 1989 CAM 0008 1152
165 SCHIELE Vincent Sp Labaroche 01:13:44 06'08''66   9.76 LABAROCHE 1977 SEM 0062 0995
166 ROUX Adrien Marathon Montbéliard 01:13:44 06'08''66   9.76 VOUJEAUCOURT 1986 ESM 0007 1345
167 FREIFER Djilloul Contrexeville 01:13:47 06'08''91   9.76 CONTREXEVILLE 1960 V1M 0050 1156
168 SAINTMARD Jean François Chenois Virton 01:13:55 06'09''58   9.74 CHENOIS VIRTON 1958 V1M 0051 1347
169 STADELI Astrid Colmar 01:14:03 06'10''25   9.72 COLMAR 1981 SEF 0005 1454
170 BOULANGER Pascal Saverne 01:14:06 06'10''50   9.72 SCHWENHEIM 1965 V1M 0052 1072
171 CHEMIN Jean Marc Lac Blanc Ski Nordique 01:14:07 06'10''58   9.71 LABAROCHE 1959 V1M 0053 1091
172 FINCK Denis Judo Munster 01:14:13 06'11''08   9.70 METZERAL 1960 V1M 0054 1149
173 SCHMITT Jean Marie Ribeauville 01:14:15 06'11''25   9.70 RIBEAUVILLE 1954 V2M 0026 1359
174 GRUNENWALD Yves Kro 01:14:17 06'11''41   9.69 NEUVILLER LA ROCHE 1959 V1M 0055 1184
175 RAPP Dominique Saverne 01:14:18 06'11''50   9.69 SAVERNE 1963 V1M 0056 1319
176 HERBRECHT Daniel Brunstatt 01:14:21 06'11''75   9.68 BRUNSTATT 1953 V2M 0027 1199
177 POINSIGNON Pierre Acahie Judo 01:14:30 06'12''50   9.66 ACHENHEIM 1988 JUM 0006 1313
178 ZUGMEYER Eric Asrhv Vallée Des Lacs 01:14:32 06'12''66   9.66 GERARDMER 1973 SEM 0063 1430
179 HERRBRECHT Christophe Wittelsheim 01:14:34 06'12''83   9.66 WITTELSHEIM 1969 SEM 0064 1447
180 DELACOTE Evelyne Orbey 01:14:41 06'13''41   9.64 ORBEY 1960 V1F 0002 1117
181 GARGOWITSCH Jean Marie Aer Ersteim 01:14:45 06'13''75   9.63 BINDERNHEIM 1952 V2M 0028 1159
182 ZIMOUCHE Amar Contrexeville 01:14:47 06'13''91   9.63 CONTREXEVILLE 1958 V1M 0057 1427
183 ADAM Claude Illzach 01:14:50 06'14''16   9.62 ILLZACH 1948 V2M 0029 1021
184 SPENNER Alice Gerardmer Triathlon 01:14:52 06'14''33   9.62 GERARDMER 1979 SEF 0006 1374
185 WINRER Jean Luc Acs Peugeot 01:14:52 06'14''33   9.62 RICHWILLER 1964 V1M 0058 1416
186 VALENTIN Jean Pierre Gérardmer 01:14:57 06'14''75   9.61 GERARDMER 1963 V1M 0059 1469
187 AUBRY Olivier Le Tholly 01:15:00 06'15''00   9.60 LE THOLY 1974 SEM 0065 1036
188 KLUR Jonathan Ingersheim 01:15:08 06'15''66   9.58 INGERSHEIM 1989 CAM 0009 1213
189 COMTE Dominique Lingolsheim 01:15:10 06'15''83   9.58 LINGOLSHEIM 1959 V1M 0060 0997
190 LAURENT Karine Orbey 01:15:12 06'16''00   9.57 ORBEY 1976 SEF 0007 1233
191 OLHAUSEN Philippe Bie Bote Orbey 01:15:13 06'16''08   9.57 ORBEY 1978 SEM 0066 1453
192 COULON Dominique Munchhouse 01:15:14 06'16''16   9.57 MUNCHHOUSE 1953 V2M 0030 1104
193 FAVIER Emmanuelle Tholy 01:15:16 06'16''33   9.57 THOLY 1974 SEF 0008 1145
194 KOCH Christian Asptt Strasbourg 01:15:22 06'16''83   9.55 FLEXBOURG 1957 V1M 0061 1216
195 MENGEL Luc Crevic 01:15:30 06'17''50   9.54 CREVIC 1953 V2M 0031 0961
196 KUEHN Jean François Ammerschwihr 01:15:32 06'17''66   9.53 AMMERSCHWIHR 1987 JUM 0007 1223
197 MERKLE Henri Tennis Club Baldersheim 01:15:34 06'17''83   9.53 BALDERSHEIM 1960 V1M 0062 1267
198 RUCH Jérôme Conseil Général 67 01:15:51 06'19''25   9.49 ECKWERSHEIM 1971 SEM 0067 1346
199 KOCH Jean-luc Wolfisheim 01:16:28 06'22''33   9.42 WOLFISHEIM 1962 V1M 0063 1217
200 COLLIN Eric Essey Les Nancy 01:16:35 06'22''91   9.40 ESSEY LES NANCY 1964 V1M 0064 1466
201 BERNHARDT Mireille Grand Fond Mulhouse 01:17:01 06'25''08   9.35 MULHOUSE 1966 V1F 0003 1055
202 PFAADT Alfred Can Sarreguemines 01:17:05 06'25''41   9.34 SARRALBE 1962 V1M 0065 1306
203 THOMANN Florian Rotary 01:17:07 06'25''58   9.34 EPINAL 1986 ESM 0008 1384
204 LAGADEC Bruno Geispolsheim 01:17:09 06'25''75   9.33 GEISPOLSHEIM 1961 V1M 0066 1227
205 BENOIT Célia Maisonsgoutte 01:17:16 06'26''33   9.32 MAISONSGOUTTE 1981 SEF 0009 1048
206 ROSSE Bernard Saint-Louis 01:17:19 06'26''58   9.31 SAINT-LOUIS 1950 V2M 0032 1340
207 LIENHART Jean Michel Nordheim 01:17:21 06'26''75   9.31 NORDHEIM 1953 V2M 0033 1249
208 SEFERAGIC Sébastien Soultz 01:17:29 06'27''41   9.29 SOULTZ 1963 V1M 0067 1364
209 VAN AUTREVE François Clarens 01:17:33 06'27''75   9.28 CLARENS 1977 SEM 0068 1462
210 HELLER Franck Arvinmeritor 01:17:36 06'28''00   9.28 NOMPATELIZE 1960 V1M 0068 1194
211 TRAPANI Pascal Wac 01:17:38 06'28''16   9.27 HOTZWIHR 1963 V1M 0069 1393
212 GAUCHER Franck Oberschaeffolsheim 01:17:46 06'28''83   9.26 OBERSCHAEFFOLSHEIM 1988 JUM 0008 1161
213 THOMAS Serge Frahier 01:17:50 06'29''16   9.25 FRAHIER 1944 V3M 0005 1388
214 SENGLER Jean-Marie Us Thann Athletisme 01:17:54 06'29''50   9.24 WATTWILLER 1955 V2M 0034 1365
215 PERRIN Serge Bnp Paribas 01:17:56 06'29''66   9.24 EPINAL 1956 V2M 0035 1302
216 THOMAS Jérôme Furchhausen 01:17:58 06'29''83   9.23 FURCHHAUSEN 1970 SEM 0069 1386
217 ROSSE Yves Hegenheim 01:18:03 06'30''25   9.22 HEGENHEIM 1948 V2M 0036 1342
218 WOJNOWSKI Thierry Longue 01:18:10 06'30''83   9.21 LONGUE 1963 V1M 0070 1418
219 ROBERT Denis Illkirch 01:18:15 06'31''25   9.20 ILLKIRCH GRAFFENSTAD 1967 SEM 0070 1337
220 LEFEBYRE Aymeric Conseil Général 67 01:18:15 06'31''25   9.20 FEGERSHEIM 1980 SEM 0071 1239
221 MATHIEU Emmanuel Caps Rupt Ferdrupt 01:18:16 06'31''33   9.20 VECOUX 1968 SEM 0072 1452
222 CHOLEZ Luc Asc Urimenil 01:18:17 06'31''41   9.20 URIMENIL 1963 V1M 0071 1096
223 ARTEL Vincent Crevic 01:18:19 06'31''58   9.19 CREVIC 1953 V2M 0037 0962
224 BEASIN Eric A.S.R.H.V. 01:18:22 06'31''83   9.19 DOMMARTIN LES REMIRE 1959 V1M 0072 1043
225 STRIBY Justin Riquewihr 01:18:27 06'32''25   9.18 RIQUEWIHR 1953 V2M 0038 1379
226 PIOTTO Martial Ostwald 01:18:49 06'34''08   9.14 OSTWALD 1963 V1M 0073 1311
227 LEDIEU Michel Mnsu Mulhouse 01:18:56 06'34''66   9.12 ZILLISHEIM 1947 V2M 0039 1237
228 SCHALLWIG Claude Les Gangeurs 01:19:00 06'35''00   9.11 LAMPERTHEIM 1968 SEM 0073 1351
229 ROUAULT Françoise Hohrod 01:19:10 06'35''83   9.09 HOHROD 1952 V2F 0001 1343
230 ECK Valérie Skieur Du Tanet 01:19:10 06'35''83   9.09 HOHROD 1963 V1F 0004 1011
231 DEBS Arnaud Seebach 01:19:19 06'36''58   9.08 SEEBACH 1990 CAM 0010 1114
232 ALLHEILY Martial Albé 01:19:20 06'36''66   9.08 ALBÉ 1967 SEM 0074 1024
233 GRIMM Michel Logelbach 01:19:20 06'36''66   9.08 LOGELBACH 1965 V1M 0074 1182
234 SIFFER Jean Marie St Pierre Bois 01:19:26 06'37''16   9.06 SAINT PIERRE BOIS 1950 V2M 0040 1369
235 PETITDEMANGE Olivier Horbourg-wihr 01:19:33 06'37''75   9.05 HORBOURG-WIHR 1965 V1M 0075 1304
236 AUBORTIN Philippe Noidans Les Vesoul 01:19:35 06'37''91   9.05 NOIDANS LES VESOUL 1964 V1M 0076 1035
237 SENGLER Sebastien Ac Centre Alsace 01:19:42 06'38''50   9.03 SELESTAT 1982 SEM 0075 1366
238 WERMELINGER Laurent Acsp Mulhouse 01:19:42 06'38''50   9.03 WITTENHEIM 1970 SEM 0076 1415
239 VIALLE Bruno Chatenay Malabry 01:19:43 06'38''58   9.03 CHATENAY MALABRY 1972 SEM 0077 1401
240 SCHWEISS Gérard As Munster Athlé 01:19:48 06'39''00   9.02 METZERAL 1946 V3M 0006 1434
241 GIOANNI Christiane Ac Centre Alsace 01:19:51 06'39''25   9.02 LE VERMONT 1952 V2F 0002 0990
242 WENGER Jean Marie Asc Bnp Paribas 01:19:53 06'39''41   9.01 BLAESHEIM 1954 V2M 0041 1414
243 GRAPPEIN Laurent Elan Chevilly Larue 01:19:53 06'39''41   9.01 CHEVILLY LARUE 1965 V1M 0077 1175
244 HOUILLON Clarisse Damas 01:20:00 06'40''00   9.00 DAMAS ET BETTEGNEY 1973 SEF 0010 1201
245 CUSATIS Divio Les Islettes 01:20:01 06'40''08   9.00 LES ISLETTES 1951 V2M 0042 1110
246 WENDSCHLAG Jurgen Lg Sulzburg-Laufen 01:20:01 06'40''08   9.00 SULZBURG 1957 V1M 0078 1413
247 SIFFER Dominique Aer Erstein 01:20:05 06'40''41   8.99 ERSTEIN 1977 SEM 0078 1368
248 HERRMANN Anne Lutterbach 01:20:06 06'40''50   8.99 REININGUE 1973 SEF 0011 1200
249 CHAMPEY Anne Scherwiller 01:20:12 06'41''00   8.98 SCHERWILLER 1972 SEF 0012 1088
250 CAUSSIN Luc Strasbourg 01:20:14 06'41''16   8.97 STRASBOURG 1965 V1M 0079 1086
251 ANDREINI Orianne Strasbourg 01:20:17 06'41''41   8.97 STRASBOURG 1981 SEF 0013 1028
252 GEORGEL Raphaelle Lons Le Saunier 01:20:19 06'41''58   8.96 LONS LE SAUNIER 1990 CAF 0001 1164
253 ERNWEIN Michel Schirmeck 01:20:21 06'41''75   8.96 SCHIRMECK 1980 SEM 0079 1137
254 HANS Thibaut La Roche Blanche 01:20:25 06'42''08   8.95 LA ROCHE BLANCHE 1988 JUM 0009 1192
255 TAVARES Emilie Kaysersberg 01:20:26 06'42''16   8.95 KAYSERSBERG 1972 SEF 0014 1380
256 LEROUX Valérie As Mouth 25 01:20:29 06'42''41   8.95 MOUTH 1968 SEF 0015 1246
257 FASSEL Jean Marie As Munster Athletisme 01:20:31 06'42''58   8.94 GRIESBACH AU VAL 1948 V2M 0043 1143
258 ROSSE Jean Pierre Kembs 01:20:35 06'42''91   8.93 KEMBS 1951 V2M 0044 1341
259 GUERIN Jean Paul Strasbourg 01:20:38 06'43''16   8.93 STRASBOURG 1953 V2M 0045 1470
260 MERKLEN Henriette Melin Ac Anjoutey Bourg 01:20:44 06'43''66   8.92 LACHAPELLE SOUS ROUG 1973 SEF 0016 1268
261 JACAMON Julien Luxeuil les Bains 01:20:46 06'43''83   8.91 LUXEUIL LES BAINS 1979 SEM 0080 1431
262 CHÈVRE Jean François Seeland Runners 01:20:51 06'44''25   8.91 BIENNE 1947 V2M 0046 1093
263 SCHERBERICH Olivier Colmar 01:20:58 06'44''83   8.89 COLMAR 1960 V1M 0080 1352
264 KUSTER Yves Bitschwiller 01:21:24 06'47''00   8.85 BITSCHWILLER L THANN 1965 V1M 0081 1226
265 BLOCK Julie Ban de Laveline 01:21:42 06'48''50   8.81 BAN DE LAVELINE 1971 SEF 0017 1064
266 ERNWEIN Andre Schirmeck 01:22:02 06'50''16   8.78 LA BROQUE 1954 V2M 0047 1136
267 BOCH Eddie Marcheurs Haut Barr 01:22:02 06'50''16   8.78 SAVERNE 1949 V2M 0048 1067
268 HUCHETTE Quentin Bussang 01:22:06 06'50''50   8.77 BUSSANG 1984 ESM 0009 1203
269 BRICKERT Monique Asc Bnp Paribas 01:22:09 06'50''75   8.76 STRASBOURG 1967 SEF 0018 1078
270 VOGEL Bernard Thann 01:22:51 06'54''25   8.69 THANN 1955 V2M 0049 1405
271 PAROLINI Michaël Orbey 01:22:55 06'54''58   8.68 ORBEY 1974 SEM 0081 1296
272 CHOLEZ Françoise Asc Urimenil 01:22:55 06'54''58   8.68 URIMENIL 1965 V1F 0005 1095
273 FRANCOIS Claude Gerardmer 01:23:05 06'55''41   8.67 GERARDMER 1969 SEM 0082 1153
274 COLLET Jean Marc Illkirch 01:23:07 06'55''58   8.66 ILLKIRCH 1969 SEM 0083 1099
275 ROUFF Patrick Can Sarreguemines 01:23:12 06'56''00   8.65 WOUSTVILLER 1955 V2M 0050 1344
276 MUNIER Herve Asc Urimenil 01:23:29 06'57''41   8.62 GOLBEY 1965 V1M 0082 1284
277 PENCREACH Roger Bischheim 01:23:43 06'58''58   8.60 BISCHHEIM 1941 V3M 0007 1299
278 LHOTE Catherine Asm Chantraine 01:23:45 06'58''75   8.60 EPINAL 1977 SEF 0019 1248
279 ANDREANI Paulette Eha Usta 01:23:46 06'58''83   8.60 BURNHAUPT LE HAUT 1960 V1F 0006 1027
280 MASSON Joanic Vyta Jog 01:23:46 06'58''83   8.60 AMIENS 1974 SEM 0084 1262
281 KUENEMANN Jean Louis Guebwiller 01:24:01 07'00''08   8.57 GUEBWILLER 1964 V1M 0083 1225
282 BOUTEILLER Linda Les Coureurs du Mardi 01:24:06 07'00''50   8.56 LA WANTZENAU 1962 V1F 0007 1075
283 MORITZ Christian Sélestat 01:24:06 07'00''50   8.56 SELESTAT 1961 V1M 0084 1281
284 SCHMITT Alain Neuhaeusel 01:24:14 07'01''16   8.55 NEUHAEUSEL 1968 SEM 0085 1358
285 ERHARD Yannick Es Thaon 01:24:22 07'01''83   8.53 EPINAL 1974 SEM 0086 1135
286 KNAUB Alain Eckwersheim 01:24:28 07'02''33   8.52 ECKWERSHEIM 1970 SEM 0087 1215
287 GERRITSEN STREER Denise Eist 01:24:34 07'02''83   8.51 EIST 1975 SEF 0020 1435
288 SCHAFFHAUSER Angélique Soultzeren 01:24:41 07'03''41   8.50 SOULTZEREN 1982 SEF 0021 1442
289 HUCHETTE Patrick Bussang 01:24:47 07'03''91   8.49 BUSSANG 1957 V1M 0085 1202
290 WOLFF Bernard Sp Tagolsheim 01:24:49 07'04''08   8.49 TAGOLSHEIM 1942 V3M 0008 1419
291 GONTIER Christine Oxygène 68 01:24:59 07'04''91   8.47 ENSISHEIM 1963 V1F 0008 1171
292 LECOMTE Bernard Eloyes 01:25:13 07'06''08   8.45 ELOYES 1957 V1M 0086 1236
293 THOMANN Simon Rotary 01:25:20 07'06''66   8.44 EPINAL 1988 JUM 0010 1385
294 KIFFEL Alain Ostwald 01:25:23 07'06''91   8.43 OSTWALD 1956 V2M 0051 0998
295 SCHLOSSER Frank Munster 01:25:30 07'07''50   8.42 MUNSTER 1971 SEM 0088 1356
296 KLUR Louis Ingersheim 01:25:32 07'07''66   8.42 INGERSHEIM 1948 V2M 0052 1214
297 MONTEIRO Josephine Les Pieds Nickeles 01:25:37 07'08''08   8.41 MUTZIG 1970 SEF 0022 1280
298 CONRATH Yves Kircheim 01:25:41 07'08''41   8.40 KIRCHEIM 1974 SEM 0089 1101
299 ARNAUD Raphaelle Vevey 01:25:45 07'08''75   8.40 VEVEY 1976 SEF 0023 1460
300 BLOCK Steve Ban de Laveline 01:25:54 07'09''50   8.38 BAN DE LAVELINE 1970 SEM 0090 1065
301 ZAUG Christian Erstein 01:25:55 07'09''58   8.38 ERSTEIN 1953 V2M 0053 1423
302 BINTZ Dominique Beaune 01:26:03 07'10''25   8.37 BEAUNE 1957 V1F 0009 1060
303 GOSTIJNANOVIC Valerie Kro 01:26:13 07'11''08   8.35 ECKBOLSHEIM 1966 V1F 0010 1173
304 MAHR Roland Forts Trotters Nieder 01:26:14 07'11''16   8.35 STRASBOURG 1956 V2M 0054 1254
305 PRADINES Laetitia Hegenheim 01:26:27 07'12''25   8.33 HEGENHEIM 1981 SEF 0024 1317
306 THOMANN Denis Rotary 01:26:28 07'12''33   8.33 EPINAL 1961 V1M 0087 1383
307 MONNIER Marie Christine Ac Anjoutey Bourg 01:26:29 07'12''41   8.33 BOURG SOUS CHÂTELET 1963 V1F 0011 1278
308 HASSLER Evelyne Chavelot 01:26:33 07'12''75   8.32 CHAVELOT 1963 V1F 0012 1193
309 ZELL Patrick Filoc 01:26:35 07'12''91   8.32 TURCKHEIM 1961 V1M 0088 1463
310 MAREHAND Alain Filoc 01:26:36 07'13''00   8.31 COLMAR 1957 V1M 0089 1465
311 CADIOU Annick Saint Jean Saverne 01:26:41 07'13''41   8.31 SAINT-JEAN SAVERNE 1961 V1F 0013 1081
312 THOUVENIN Agnes Asc Urimenil 01:26:59 07'14''91   8.28 HADOL 1958 V1F 0014 1389
313 LE PRIEUR Michel Le Muy 01:27:02 07'15''16   8.27 LE MUY 1947 V2M 0055 1234
314 BOLOGNINI Eric Solea 01:27:14 07'16''16   8.25 WITTENHEIM 1959 V1M 0090 1070
315 BOULARD Jean Illkirch 01:27:34 07'17''83   8.22 ILLKIRCH 1972 SEM 0091 1073
316 PACE Giancarlo Lingolsheim 01:27:52 07'19''33   8.19 LINGOLSHEIM 1974 SEM 0092 1291
317 PARMENTIER Hélène Asc Urimenil 01:27:56 07'19''66   8.19 URIMENIL 1955 V2F 0003 1295
318 BELARTE Nathalie As Electro Gaz Blenod 01:28:00 07'20''00   8.18 NANCY 1975 SEF 0025 1046
319 ARMSPACH Fernand Zillisheim 01:28:01 07'20''08   8.18 ZILLISHEIM 1948 V2M 0056 1031
320 RINGLER Denis Colmar Marathon Club 01:28:04 07'20''33   8.18 COLMAR 1954 V2M 0057 1331
321 AMET Agnès La Bresse 01:28:23 07'21''91   8.15 LA BRESSE 1960 V1F 0015 1026
322 VANACKER Alexis Vyta Jog 01:28:59 07'24''91   8.09 AMIENS 1987 JUM 0011 1398
323 MARTINACHE Laurent Bruker 01:29:00 07'25''00   8.09 MARIENTHAL 1962 V1M 0091 1450
324 MARTINACHE Etienne Belfort 01:29:00 07'25''00   8.09 BELFORT 1958 V1M 0092 1261
325 SCHWARTZ Norbert Soucht 01:29:09 07'25''75   8.08 SOUCHT 1947 V2M 0058 1362
326 PERRIN Jacqueline La Bressaude 01:29:14 07'26''16   8.07 LA BRESSE 1944 V3F 0001 1301
327 NOEL Michel Arvinmeritor 01:29:16 07'26''33   8.07 ANOULD 1972 SEM 0093 1288
328 LEFEVRE Emeline Vyta Jog 01:29:17 07'26''41   8.06 AMIENS 1977 SEF 0026 1240
329 SCHALLER Isabelle Blois 01:30:08 07'30''66   7.99 BLOIS 1968 SEF 0027 1350
330 PAHON Agnès Luneville 01:30:12 07'31''00   7.98 LUNEVILLE 1960 V1F 0016 1292
331 DAILLY Arnaud Metz 01:30:13 07'31''08   7.98 METZ 1976 SEM 0094 1111
332 STOEBNER Michèle Batibois Alsace 01:30:19 07'31''58   7.97 HORBOURG-WIHR 1960 V1F 0017 1376
333 ETIENNE Marie Francoise Asm Chantraine 01:30:37 07'33''08   7.95 EPINAL 1961 V1F 0018 1139
334 KIFFEL Audrey Bietlenheim 01:30:43 07'33''58   7.94 BIETLENHEIM 1975 SEF 0028 1209
335 SONNTAG Gilbert Lingolsheim 01:30:52 07'34''33   7.92 LINGOLSHEIM 1938 V3M 0009 1371
336 MAURER Gilbert Pca Csl Neuf-Brisach 01:31:05 07'35''41   7.90 COLMAR 1950 V2M 0059 1265
337 BALTENWECK Carole Les Coureurs du Mardi 01:31:12 07'36''00   7.89 LAMPERTHEIM 1965 V1F 0019 1038
338 DURAND Jean Pierre Sa Et Mar.Bois D'Arcy 01:31:14 07'36''16   7.89 BOIS D'ARCY 1945 V3M 0010 1129
339 SCHMITT Agnès Metzeral 01:31:22 07'36''83   7.88 METZERAL 1963 V1F 0020 1357
340 DIERSTEIN Delphine Ac Golbey 01:31:35 07'37''91   7.86 GOLBEY 1977 SEF 0029 1123
341 PETIT-PRIGENT Jean Pierre Colmar Marathon Club 01:31:49 07'39''08   7.84 COLMAR 1958 V1M 0093 1305
342 LARCHEVEQUE Dominique Chemimenil 01:31:52 07'39''33   7.84 CHEMIMENIL 1955 V2M 0060 1229
343 FELS Gilbert Gefco 01:31:54 07'39''50   7.83 MULHOUSE 1958 V1M 0094 1146
344 ERNY Gérard Niffer 01:32:19 07'41''58   7.80 NIFFER 1945 V3M 0011 1138
345 PETITDEMANGE Nathalie Horbourg-wihr 01:32:24 07'42''00   7.79 HORBOURG-WIHR 1968 SEF 0030 1303
346 CUNY Jacky Les Gars Du Val Cross 01:32:47 07'43''91   7.76 DENEUVRE 1961 V1M 0095 1109
347 MOHN Geoffroy Colmar 01:32:52 07'44''33   7.75 COLMAR 1982 SEM 0095 1275
348 WACH Véronique Strasbourg 01:33:00 07'45''00   7.74 STRASBOURG 1972 SEF 0031 1406
349 TOURNIOR Yasmine Noidans Les Vesoul 01:33:01 07'45''08   7.74 NOIDANS LES VESOUL 1955 V2F 0004 1391
350 BERNON Nathalie Ac Anjoutey Bourg 01:33:02 07'45''16   7.74 BELFORT 1958 V1F 0021 1056
351 GUILLIN Florence Ac Anjoutey Bourg 01:33:02 07'45''16   7.74 SAINT GERMAIN LE CHÂ 1968 SEF 0032 1187
352 BERCOT Luc Rixheim 01:33:07 07'45''58   7.73 RIXHEIM 1952 V2M 0061 1049
353 KOHSER Nathalie Mittlach 01:33:10 07'45''83   7.73 MITTLACH 1969 SEF 0033 1219
354 ANGENARD Prunelle Coulommiers Brie Athlé 01:33:24 07'47''00   7.71 ST DENIS LES REBAIS 1989 CAF 0002 1029
355 MANCHO François Conseil Général 67 01:33:26 07'47''16   7.71 ROSHEIM 1964 V1M 0096 0993
356 RINALDO Françoise Sélestat 01:33:42 07'48''50   7.68 SELESTAT 1963 V1F 0022 1329
357 DI JORIO Christine Asl Kolbsheim 01:34:03 07'50''25   7.66 KOLBSHEIM 1969 SEF 0034 1122
358 LORIQUE Elisabeth Reims 01:34:31 07'52''58   7.62 REIMS 1953 V2F 0005 1251
359 MICLO Christine Kaysersberg 01:34:35 07'52''91   7.61 KAYSERSBERG 1963 V1F 0023 1271
360 BARTHOLLET Severine Velizy 01:34:40 07'53''33   7.61 VELISY 1975 SEF 0035 1041
361 BOULHAUT Mireille Lachalade 01:34:46 07'53''83   7.60 LACHALADE 1963 V1F 0024 1074
362 ROMARY Didier Asc Urimenil 01:34:50 07'54''16   7.59 EPINAL 1980 SEM 0096 1339
363 SESENBRENNER Michèle Boersch 01:34:55 07'54''58   7.59 BOERSCH 1966 V1F 0025 1367
364 PARMENTIER Denis Biê Botê Orbey 01:35:17 07'56''41   7.56 ORBEY 1975 SEM 0097 1293
365 KIEFFER Laurence Huningue 01:35:34 07'57''83   7.53 HUNINGUE 1976 SEF 0036 1208
366 SCHILLINGER Frédéric Judo Club Horbourg-Wihr 01:35:46 07'58''83   7.52 ANDOLSHEIM 1971 SEM 0098 1354
367 GAILLET Aurore Strasbourg 01:35:51 07'59''25   7.51 STRASBOURG 1981 SEF 0037 1158
368 BALANDIER Marie Claude A S C U (urimenil) 01:36:13 08'01''08   7.48 GOLBEY 1952 V2F 0006 1037
369 PRUD'HOMME Jean-françois Asol 01:36:23 08'01''91   7.47 ORBEY 1960 V1M 0097 1318
370 BERGAGNINI Patrick Saint-Etienne-Remiremont 01:36:31 08'02''58   7.46 SAINT-ETIENNE-LES-RE 1955 V2M 0062 1050
371 SOULET Nathalie Vosges Trotters Strasb. 01:36:34 08'02''83   7.46 HAEGEN 1971 SEF 0038 1372
372 BOCH Anne Rachel Etp-Couffignal Strasb 01:36:47 08'03''91   7.44 STRASBOURG 1978 SEF 0039 1066
373 CELEREAU Jacques Coop Alsace 01:36:48 08'04''00   7.44 MULHOUSE 1960 V1M 0098 1087
374 FENDER Richard As Lilly 01:36:53 08'04''41   7.43 MATZENHEIM 1951 V2M 0063 1147
375 MANN Didier Pagny Footing 01:36:58 08'04''83   7.43 PAGNY SUR MOSELLE 1959 V1M 0099 1257
376 ZRODLOWSKI Daniel S.O.I.G. 01:36:59 08'04''91   7.42 SAVERNE 1961 V1M 0100 1429
377 ALBRECHT Patrick Coop Alsace 01:37:06 08'05''50   7.42 BINDERNHEIM 1959 V1M 0101 1023
378 DELAHOCHE Sandrine Vyta Jog 01:37:08 08'05''66   7.41 AMIENS 1967 SEF 0040 1118
379 STAES Xavier Vyta Jog 01:37:09 08'05''75   7.41 AMIENS 1961 V1M 0102 1375
380 KUEHN Maryline Strasbourg 01:37:54 08'09''50   7.35 STRASBOURG 1981 SEF 0041 1224
381 BOUVRY Michel Coulommiers Brie Athlé 01:38:29 08'12''41   7.31 JOUY SUR MORIN 1956 V2M 0064 1076
382 GRAVIER Monique Illzach 01:38:30 08'12''50   7.31 ILLZACH 1949 V2F 0007 1177
383 PIERRE Peggy Colmar 01:38:37 08'13''08   7.30 COLMAR 1980 SEF 0042 1310
384 AUBERT Martine Herrlisheim 01:38:45 08'13''75   7.29 HERRLISHEIM 1968 SEF 0043 1033
385 WEBER Annick Foulées 4P Rosheim 01:38:52 08'14''33   7.28 KRAUTERGERSHEIM 1963 V1F 0026 1409
386 MONTAUT Sandrine Cachan 01:39:06 08'15''50   7.27 CACHAN 1974 SEF 0044 1279
387 CHÈVRE Marie Madeleine Seeland Runners 01:39:46 08'18''83   7.22 BIENNE 1950 V2F 0008 1094
388 LORRAIN Nathalie Gironcourt Sur Vraine 01:42:05 08'30''41   7.05 GIRONCOURT S VRAINE 1973 SEF 0045 1252
389 DOUKHI Mokdad Contrexeville 01:42:17 08'31''41   7.04 CONTREXEVILLE 1965 V1M 0103 1125
390 MOHR Uta Tsg Eisenberg 01:42:18 08'31''50   7.04 EISENBERG 1962 V1F 0027 1276
391 KRILL Thomas Tsg Eisenberg 01:42:18 08'31''50   7.04 EISENBERG 1963 V1M 0104 1220
392 RICHARD Manuella Ca Malling 01:42:21 08'31''75   7.03 THIONVILLE 1963 V1F 0028 1327
393 VITIS Jocelyne Bipèdes Bernayens 01:42:35 08'32''91   7.02 LOUVIERS 1945 V3F 0002 1404
394 PEETERS-KLEIN Brigitte Sport P.T Wavre 01:43:08 08'35''66   6.98 DION-VALMONT 1966 V1F 0029 1007
395 HENGEL Sandra Colmar 01:43:10 08'35''83   6.98 COLMAR 1974 SEF 0046 1195
396 BURGUN Patrick Soucht 01:44:32 08'42''66   6.89 SOUCHT 1961 V1M 0105 1080
397 LAHAYE Stéphanie Tupperal Nord 01:45:38 08'48''16   6.82 HONDELANGE 1980 SEF 0047 1437
398 POIROT Martine La Bresse 01:46:32 08'52''66   6.76 LA BRESSE 1957 V1F 0030 1315
399 RISSER Benedicte Val D'Ajol 01:47:12 08'56''00   6.72 VAL D'AJOL 1970 SEF 0048 1334
400 MATTER Sophie Stattmatten 01:49:58 09'09''83   6.55 STATTMATTEN 1973 SEF 0049 1264
401 BERNARD Céline Colmar 01:51:15 09'16''25   6.47 COLMAR 1972 SEF 0050 1052
402 PELLEGRINI Chantal Villers Le Sec 01:53:39 09'28''25   6.34 VILLERS LE SEC 1955 V2F 0009 1297
403 BAUMGART Christiane Marienthal 01:54:37 09'33''08   6.28 MARIENTHAL 1949 V2F 0010 1042
404 MELCHIOR Isabelle Laxou 01:55:27 09'37''25   6.24 LAXOU 1960 V1F 0031 1266
405 GOSSMANN Antonella Bavans 01:58:31 09'52''58   6.08 BAVANS 1979 SEF 0051 1172
406 BONNEFOY Alain Eha Pulversheim 01:58:31 09'52''58   6.08 ROSENAU 1947 V2M 0065 1071
407 DELSAD Jonathan Gélacourt 01:58:34 09'52''83   6.07 GELACOURT 1987 JUM 0012 1119
408 GRIDEL Christine Asptt Verdun 01:59:32 09'57''66   6.02 BELLEVILLE SUR MEUSE 1960 V1F 0032 1180
409 FOERSTER Robert Colmar 02:00:41 10'03''41   5.97 COLMAR 1966 V1M 0106 1455
410 ETIENNE Patricia Brin Sur Seille 02:02:14 10'11''16   5.89 BRIN SUR SEILLE 1959 V1F 0033 1140
411 TROSSAT Marie Heillecourt 02:02:18 10'11''50   5.89 HEILLECOURT 1949 V2F 0011 1395
412 FLAMENT Marie Ange Richardmenil 02:11:12 10'56''00   5.49 RICHARDMENIL 1958 V1F 0034 1150
413 DUMONTEIL Laurence Richardmenil 02:11:15 10'56''25   5.49 RICHARDMENIL 1959 V1F 0035 1128
414 MANDAUSCH Luce Val D Ajol 02:12:15 11'01''25   5.44 VAL D AJOL 1949 V2F 0012 1256
415 BERNDORF Elke Tsg Eisenberg 02:12:40 11'03''33   5.43 EISENBERG 1958 V1F 0036 1054
416 POIROT Florence Cohm 02:14:33 11'12''75   5.35 LA BRESSE 1984 ESF 0001 1008